sensor_id;sensor_type;location;lat;lon;timestamp;temperature;humidity
63899;HTU21D;50070;-32.946;-60.652;2023-03-01T00:01:07;33.71;35.16
63899;HTU21D;50070;-32.946;-60.652;2023-03-01T00:03:35;33.51;36.66
63899;HTU21D;50070;-32.946;-60.652;2023-03-01T00:06:03;33.33;36.88
63899;HTU21D;50070;-32.946;-60.652;2023-03-01T00:08:30;33.22;36.88
63899;HTU21D;50070;-32.946;-60.652;2023-03-01T00:11:27;33.25;36.98
63899;HTU21D;50070;-32.946;-60.652;2023-03-01T00:13:59;33.09;36.72
63899;HTU21D;50070;-32.946;-60.652;2023-03-01T00:16:29;33.11;37.67
63899;HTU21D;50070;-32.946;-60.652;2023-03-01T00:18:57;33.12;36.88
63899;HTU21D;50070;-32.946;-60.652;2023-03-01T00:21:30;33.33;36.75
63899;HTU21D;50070;-32.946;-60.652;2023-03-01T00:23:57;33.50;35.86
63899;HTU21D;50070;-32.946;-60.652;2023-03-01T00:26:25;33.58;35.61
63899;HTU21D;50070;-32.946;-60.652;2023-03-01T00:28:53;33.58;35.52
63899;HTU21D;50070;-32.946;-60.652;2023-03-01T00:31:29;33.61;35.79
63899;HTU21D;50070;-32.946;-60.652;2023-03-01T00:33:58;33.41;36.29
63899;HTU21D;50070;-32.946;-60.652;2023-03-01T00:36:34;33.53;36.51
63899;HTU21D;50070;-32.946;-60.652;2023-03-01T00:39:02;33.40;36.37
63899;HTU21D;50070;-32.946;-60.652;2023-03-01T00:41:30;33.14;38.81
63899;HTU21D;50070;-32.946;-60.652;2023-03-01T00:44:00;33.14;38.58
63899;HTU21D;50070;-32.946;-60.652;2023-03-01T00:46:30;33.02;38.91
63899;HTU21D;50070;-32.946;-60.652;2023-03-01T00:48:57;32.97;38.86
63899;HTU21D;50070;-32.946;-60.652;2023-03-01T00:51:27;32.76;40.23
63899;HTU21D;50070;-32.946;-60.652;2023-03-01T00:53:56;32.53;40.52
63899;HTU21D;50070;-32.946;-60.652;2023-03-01T00:56:24;32.87;39.88
63899;HTU21D;50070;-32.946;-60.652;2023-03-01T00:58:50;32.71;40.48
63899;HTU21D;50070;-32.946;-60.652;2023-03-01T01:01:21;32.88;40.02
63899;HTU21D;50070;-32.946;-60.652;2023-03-01T01:03:52;32.84;39.33
63899;HTU21D;50070;-32.946;-60.652;2023-03-01T01:06:23;33.09;38.75
63899;HTU21D;50070;-32.946;-60.652;2023-03-01T01:08:55;32.84;41.05
63899;HTU21D;50070;-32.946;-60.652;2023-03-01T01:11:24;32.60;42.25
63899;HTU21D;50070;-32.946;-60.652;2023-03-01T01:13:51;32.57;42.21
63899;HTU21D;50070;-32.946;-60.652;2023-03-01T01:16:21;32.50;41.31
63899;HTU21D;50070;-32.946;-60.652;2023-03-01T01:18:48;32.56;41.44
63899;HTU21D;50070;-32.946;-60.652;2023-03-01T01:21:17;32.46;42.47
63899;HTU21D;50070;-32.946;-60.652;2023-03-01T01:23:45;32.24;42.62
63899;HTU21D;50070;-32.946;-60.652;2023-03-01T01:26:15;32.32;42.23
63899;HTU21D;50070;-32.946;-60.652;2023-03-01T01:28:43;32.37;41.92
63899;HTU21D;50070;-32.946;-60.652;2023-03-01T01:31:10;32.28;42.67
63899;HTU21D;50070;-32.946;-60.652;2023-03-01T01:33:39;32.33;42.31
63899;HTU21D;50070;-32.946;-60.652;2023-03-01T01:36:07;32.32;42.52
63899;HTU21D;50070;-32.946;-60.652;2023-03-01T01:38:35;32.27;42.46
63899;HTU21D;50070;-32.946;-60.652;2023-03-01T01:41:06;32.48;41.36
63899;HTU21D;50070;-32.946;-60.652;2023-03-01T01:43:38;32.41;41.59
63899;HTU21D;50070;-32.946;-60.652;2023-03-01T01:46:12;32.55;41.44
63899;HTU21D;50070;-32.946;-60.652;2023-03-01T01:48:54;32.40;41.68
63899;HTU21D;50070;-32.946;-60.652;2023-03-01T01:51:27;32.32;41.58
63899;HTU21D;50070;-32.946;-60.652;2023-03-01T01:54:10;32.23;42.35
63899;HTU21D;50070;-32.946;-60.652;2023-03-01T01:56:40;32.15;42.32
63899;HTU21D;50070;-32.946;-60.652;2023-03-01T01:59:09;32.56;40.04
63899;HTU21D;50070;-32.946;-60.652;2023-03-01T02:01:39;32.61;40.61
63899;HTU21D;50070;-32.946;-60.652;2023-03-01T02:04:06;32.48;40.59
63899;HTU21D;50070;-32.946;-60.652;2023-03-01T02:06:43;32.61;40.51
63899;HTU21D;50070;-32.946;-60.652;2023-03-01T02:09:12;32.72;40.54
63899;HTU21D;50070;-32.946;-60.652;2023-03-01T02:11:41;32.44;41.32
63899;HTU21D;50070;-32.946;-60.652;2023-03-01T02:14:12;32.27;41.81
63899;HTU21D;50070;-32.946;-60.652;2023-03-01T02:16:38;32.22;41.90
63899;HTU21D;50070;-32.946;-60.652;2023-03-01T02:19:06;32.25;42.01
63899;HTU21D;50070;-32.946;-60.652;2023-03-01T02:27:19;32.20;42.06
63899;HTU21D;50070;-32.946;-60.652;2023-03-01T02:29:50;32.13;42.17
63899;HTU21D;50070;-32.946;-60.652;2023-03-01T02:32:18;31.89;42.90
63899;HTU21D;50070;-32.946;-60.652;2023-03-01T02:34:56;32.03;42.57
63899;HTU21D;50070;-32.946;-60.652;2023-03-01T02:37:24;32.12;42.45
63899;HTU21D;50070;-32.946;-60.652;2023-03-01T02:39:57;32.24;41.79
63899;HTU21D;50070;-32.946;-60.652;2023-03-01T02:42:33;32.27;41.69
63899;HTU21D;50070;-32.946;-60.652;2023-03-01T02:45:03;32.30;41.60
63899;HTU21D;50070;-32.946;-60.652;2023-03-01T02:47:29;32.12;41.74
63899;HTU21D;50070;-32.946;-60.652;2023-03-01T02:49:56;32.20;41.50
63899;HTU21D;50070;-32.946;-60.652;2023-03-01T02:52:44;32.07;41.45
63899;HTU21D;50070;-32.946;-60.652;2023-03-01T02:55:17;32.12;41.33
63899;HTU21D;50070;-32.946;-60.652;2023-03-01T02:57:45;32.29;40.94
63899;HTU21D;50070;-32.946;-60.652;2023-03-01T03:00:24;32.26;40.72
63899;HTU21D;50070;-32.946;-60.652;2023-03-01T03:02:54;32.17;40.80
63899;HTU21D;50070;-32.946;-60.652;2023-03-01T03:05:26;32.16;40.42
63899;HTU21D;50070;-32.946;-60.652;2023-03-01T03:07:53;32.10;40.78
63899;HTU21D;50070;-32.946;-60.652;2023-03-01T03:10:28;32.28;40.30
63899;HTU21D;50070;-32.946;-60.652;2023-03-01T03:13:04;32.14;40.68
63899;HTU21D;50070;-32.946;-60.652;2023-03-01T03:15:32;32.26;40.27
63899;HTU21D;50070;-32.946;-60.652;2023-03-01T03:18:07;32.32;40.07
63899;HTU21D;50070;-32.946;-60.652;2023-03-01T03:20:34;32.24;40.24
63899;HTU21D;50070;-32.946;-60.652;2023-03-01T03:23:01;31.96;40.83
63899;HTU21D;50070;-32.946;-60.652;2023-03-01T03:25:29;31.94;40.90
63899;HTU21D;50070;-32.946;-60.652;2023-03-01T03:27:56;31.88;41.05
63899;HTU21D;50070;-32.946;-60.652;2023-03-01T03:30:31;32.23;40.16
63899;HTU21D;50070;-32.946;-60.652;2023-03-01T03:32:59;32.27;40.03
63899;HTU21D;50070;-32.946;-60.652;2023-03-01T03:35:30;32.11;40.45
63899;HTU21D;50070;-32.946;-60.652;2023-03-01T03:38:01;32.11;40.06
63899;HTU21D;50070;-32.946;-60.652;2023-03-01T03:40:35;32.01;40.26
63899;HTU21D;50070;-32.946;-60.652;2023-03-01T03:43:06;31.95;40.43
63899;HTU21D;50070;-32.946;-60.652;2023-03-01T03:45:35;31.87;40.79
63899;HTU21D;50070;-32.946;-60.652;2023-03-01T03:48:03;31.67;41.36
63899;HTU21D;50070;-32.946;-60.652;2023-03-01T03:50:31;31.67;41.34
63899;HTU21D;50070;-32.946;-60.652;2023-03-01T03:53:00;31.83;41.07
63899;HTU21D;50070;-32.946;-60.652;2023-03-01T03:55:27;31.76;41.11
63899;HTU21D;50070;-32.946;-60.652;2023-03-01T03:58:01;31.83;41.33
63899;HTU21D;50070;-32.946;-60.652;2023-03-01T04:00:43;31.85;41.90
63899;HTU21D;50070;-32.946;-60.652;2023-03-01T04:03:11;31.92;41.21
63899;HTU21D;50070;-32.946;-60.652;2023-03-01T04:05:40;31.85;42.50
63899;HTU21D;50070;-32.946;-60.652;2023-03-01T04:08:07;31.82;41.89
63899;HTU21D;50070;-32.946;-60.652;2023-03-01T04:10:40;31.41;43.45
63899;HTU21D;50070;-32.946;-60.652;2023-03-01T04:13:13;31.33;44.62
63899;HTU21D;50070;-32.946;-60.652;2023-03-01T04:15:40;31.52;43.40
63899;HTU21D;50070;-32.946;-60.652;2023-03-01T04:18:13;31.52;43.64
63899;HTU21D;50070;-32.946;-60.652;2023-03-01T04:20:40;31.60;42.75
63899;HTU21D;50070;-32.946;-60.652;2023-03-01T04:25:45;31.81;42.45
63899;HTU21D;50070;-32.946;-60.652;2023-03-01T04:28:15;31.29;43.01
63899;HTU21D;50070;-32.946;-60.652;2023-03-01T04:30:42;31.29;45.03
63899;HTU21D;50070;-32.946;-60.652;2023-03-01T04:33:10;31.10;46.22
63899;HTU21D;50070;-32.946;-60.652;2023-03-01T04:35:37;31.05;46.39
63899;HTU21D;50070;-32.946;-60.652;2023-03-01T04:38:05;30.86;46.11
63899;HTU21D;50070;-32.946;-60.652;2023-03-01T04:40:32;31.02;46.90
63899;HTU21D;50070;-32.946;-60.652;2023-03-01T04:43:02;31.29;44.90
63899;HTU21D;50070;-32.946;-60.652;2023-03-01T04:45:31;31.24;43.99
63899;HTU21D;50070;-32.946;-60.652;2023-03-01T04:47:57;31.28;44.13
63899;HTU21D;50070;-32.946;-60.652;2023-03-01T04:50:24;31.28;44.28
63899;HTU21D;50070;-32.946;-60.652;2023-03-01T04:52:52;31.25;44.78
63899;HTU21D;50070;-32.946;-60.652;2023-03-01T04:55:19;31.22;44.94
63899;HTU21D;50070;-32.946;-60.652;2023-03-01T04:57:45;30.83;46.06
63899;HTU21D;50070;-32.946;-60.652;2023-03-01T05:00:13;31.00;46.46
63899;HTU21D;50070;-32.946;-60.652;2023-03-01T05:02:57;30.96;46.54
63899;HTU21D;50070;-32.946;-60.652;2023-03-01T05:05:31;31.04;45.97
63899;HTU21D;50070;-32.946;-60.652;2023-03-01T05:08:03;31.25;45.27
63899;HTU21D;50070;-32.946;-60.652;2023-03-01T05:10:31;31.31;44.63
63899;HTU21D;50070;-32.946;-60.652;2023-03-01T05:12:59;31.06;44.93
63899;HTU21D;50070;-32.946;-60.652;2023-03-01T05:15:27;30.87;45.33
63899;HTU21D;50070;-32.946;-60.652;2023-03-01T05:17:55;30.95;45.00
63899;HTU21D;50070;-32.946;-60.652;2023-03-01T05:20:24;30.74;45.61
63899;HTU21D;50070;-32.946;-60.652;2023-03-01T05:22:52;30.82;45.45
63899;HTU21D;50070;-32.946;-60.652;2023-03-01T05:25:21;30.95;45.19
63899;HTU21D;50070;-32.946;-60.652;2023-03-01T05:27:48;31.00;44.87
63899;HTU21D;50070;-32.946;-60.652;2023-03-01T05:30:15;30.44;46.73
63899;HTU21D;50070;-32.946;-60.652;2023-03-01T05:32:46;30.66;46.03
63899;HTU21D;50070;-32.946;-60.652;2023-03-01T05:35:16;30.69;46.50
63899;HTU21D;50070;-32.946;-60.652;2023-03-01T05:37:45;30.51;47.63
63899;HTU21D;50070;-32.946;-60.652;2023-03-01T05:40:18;30.66;46.73
63899;HTU21D;50070;-32.946;-60.652;2023-03-01T05:42:55;30.68;46.42
63899;HTU21D;50070;-32.946;-60.652;2023-03-01T05:45:23;30.86;45.32
63899;HTU21D;50070;-32.946;-60.652;2023-03-01T05:47:51;30.84;45.39
63899;HTU21D;50070;-32.946;-60.652;2023-03-01T05:50:26;30.82;45.73
63899;HTU21D;50070;-32.946;-60.652;2023-03-01T05:53:18;30.61;46.36
63899;HTU21D;50070;-32.946;-60.652;2023-03-01T05:55:47;30.68;46.48
63899;HTU21D;50070;-32.946;-60.652;2023-03-01T05:58:18;30.24;47.73
63899;HTU21D;50070;-32.946;-60.652;2023-03-01T06:00:46;30.25;47.73
63899;HTU21D;50070;-32.946;-60.652;2023-03-01T06:03:15;30.21;47.96
63899;HTU21D;50070;-32.946;-60.652;2023-03-01T06:05:43;30.39;47.63
63899;HTU21D;50070;-32.946;-60.652;2023-03-01T06:08:10;30.48;47.03
63899;HTU21D;50070;-32.946;-60.652;2023-03-01T06:10:38;30.37;47.38
63899;HTU21D;50070;-32.946;-60.652;2023-03-01T06:13:05;30.50;46.91
63899;HTU21D;50070;-32.946;-60.652;2023-03-01T06:15:32;30.59;46.87
63899;HTU21D;50070;-32.946;-60.652;2023-03-01T06:17:59;30.52;47.02
63899;HTU21D;50070;-32.946;-60.652;2023-03-01T06:20:27;30.02;49.31
63899;HTU21D;50070;-32.946;-60.652;2023-03-01T06:22:53;29.95;48.53
63899;HTU21D;50070;-32.946;-60.652;2023-03-01T06:25:22;29.58;49.85
63899;HTU21D;50070;-32.946;-60.652;2023-03-01T06:27:49;29.57;48.96
63899;HTU21D;50070;-32.946;-60.652;2023-03-01T06:30:20;29.58;49.63
63899;HTU21D;50070;-32.946;-60.652;2023-03-01T06:32:47;29.72;48.37
63899;HTU21D;50070;-32.946;-60.652;2023-03-01T06:35:15;29.74;47.64
63899;HTU21D;50070;-32.946;-60.652;2023-03-01T06:37:47;29.95;46.80
63899;HTU21D;50070;-32.946;-60.652;2023-03-01T06:40:14;29.74;47.53
63899;HTU21D;50070;-32.946;-60.652;2023-03-01T06:42:43;30.06;46.41
63899;HTU21D;50070;-32.946;-60.652;2023-03-01T06:45:10;30.25;45.50
63899;HTU21D;50070;-32.946;-60.652;2023-03-01T06:47:37;30.19;45.93
63899;HTU21D;50070;-32.946;-60.652;2023-03-01T06:50:04;30.24;45.80
63899;HTU21D;50070;-32.946;-60.652;2023-03-01T06:52:31;29.93;44.78
63899;HTU21D;50070;-32.946;-60.652;2023-03-01T06:54:58;29.86;45.44
63899;HTU21D;50070;-32.946;-60.652;2023-03-01T06:57:25;29.98;45.24
63899;HTU21D;50070;-32.946;-60.652;2023-03-01T06:59:52;29.76;46.63
63899;HTU21D;50070;-32.946;-60.652;2023-03-01T07:02:19;29.79;47.44
63899;HTU21D;50070;-32.946;-60.652;2023-03-01T07:04:46;29.37;50.15
63899;HTU21D;50070;-32.946;-60.652;2023-03-01T07:07:12;29.41;49.63
63899;HTU21D;50070;-32.946;-60.652;2023-03-01T07:09:39;29.52;48.89
63899;HTU21D;50070;-32.946;-60.652;2023-03-01T07:12:06;29.66;48.43
63899;HTU21D;50070;-32.946;-60.652;2023-03-01T07:14:34;29.37;49.83
63899;HTU21D;50070;-32.946;-60.652;2023-03-01T07:17:00;29.52;49.91
63899;HTU21D;50070;-32.946;-60.652;2023-03-01T07:19:27;29.52;49.89
63899;HTU21D;50070;-32.946;-60.652;2023-03-01T07:21:53;29.71;49.43
63899;HTU21D;50070;-32.946;-60.652;2023-03-01T07:24:22;29.78;48.75
63899;HTU21D;50070;-32.946;-60.652;2023-03-01T07:26:50;29.68;48.68
63899;HTU21D;50070;-32.946;-60.652;2023-03-01T07:29:17;29.65;48.45
63899;HTU21D;50070;-32.946;-60.652;2023-03-01T07:31:44;29.67;48.02
63899;HTU21D;50070;-32.946;-60.652;2023-03-01T07:34:11;29.42;48.75
63899;HTU21D;50070;-32.946;-60.652;2023-03-01T07:36:38;29.30;49.78
63899;HTU21D;50070;-32.946;-60.652;2023-03-01T07:39:05;29.39;50.04
63899;HTU21D;50070;-32.946;-60.652;2023-03-01T07:41:32;29.23;50.79
63899;HTU21D;50070;-32.946;-60.652;2023-03-01T07:43:59;29.18;51.20
63899;HTU21D;50070;-32.946;-60.652;2023-03-01T07:46:26;29.32;50.95
63899;HTU21D;50070;-32.946;-60.652;2023-03-01T07:48:53;29.00;51.24
63899;HTU21D;50070;-32.946;-60.652;2023-03-01T07:51:20;28.80;50.23
63899;HTU21D;50070;-32.946;-60.652;2023-03-01T07:53:47;28.90;50.91
63899;HTU21D;50070;-32.946;-60.652;2023-03-01T07:56:15;28.86;51.29
63899;HTU21D;50070;-32.946;-60.652;2023-03-01T07:58:45;28.67;51.95
63899;HTU21D;50070;-32.946;-60.652;2023-03-01T08:01:14;28.79;51.11
63899;HTU21D;50070;-32.946;-60.652;2023-03-01T08:03:41;28.87;50.76
63899;HTU21D;50070;-32.946;-60.652;2023-03-01T08:06:10;28.98;50.60
63899;HTU21D;50070;-32.946;-60.652;2023-03-01T08:08:40;28.63;51.66
63899;HTU21D;50070;-32.946;-60.652;2023-03-01T08:11:09;28.75;50.24
63899;HTU21D;50070;-32.946;-60.652;2023-03-01T08:13:36;28.72;50.39
63899;HTU21D;50070;-32.946;-60.652;2023-03-01T08:16:05;28.90;49.58
63899;HTU21D;50070;-32.946;-60.652;2023-03-01T08:18:32;28.65;50.13
63899;HTU21D;50070;-32.946;-60.652;2023-03-01T08:21:07;28.31;49.76
63899;HTU21D;50070;-32.946;-60.652;2023-03-01T08:23:34;28.21;50.11
63899;HTU21D;50070;-32.946;-60.652;2023-03-01T08:28:32;28.12;50.22
63899;HTU21D;50070;-32.946;-60.652;2023-03-01T08:30:59;27.94;50.60
63899;HTU21D;50070;-32.946;-60.652;2023-03-01T08:33:26;27.97;50.56
63899;HTU21D;50070;-32.946;-60.652;2023-03-01T08:36:01;27.99;50.33
63899;HTU21D;50070;-32.946;-60.652;2023-03-01T08:40:53;27.93;50.63
63899;HTU21D;50070;-32.946;-60.652;2023-03-01T08:43:19;27.81;50.37
63899;HTU21D;50070;-32.946;-60.652;2023-03-01T08:45:48;27.74;50.51
63899;HTU21D;50070;-32.946;-60.652;2023-03-01T08:48:15;27.75;50.88
63899;HTU21D;50070;-32.946;-60.652;2023-03-01T08:50:42;27.89;50.19
63899;HTU21D;50070;-32.946;-60.652;2023-03-01T08:53:08;28.05;49.60
63899;HTU21D;50070;-32.946;-60.652;2023-03-01T08:55:35;28.10;49.28
63899;HTU21D;50070;-32.946;-60.652;2023-03-01T08:58:02;27.93;49.72
63899;HTU21D;50070;-32.946;-60.652;2023-03-01T09:00:29;27.87;49.91
63899;HTU21D;50070;-32.946;-60.652;2023-03-01T09:02:55;27.81;50.31
63899;HTU21D;50070;-32.946;-60.652;2023-03-01T09:05:22;27.68;50.76
63899;HTU21D;50070;-32.946;-60.652;2023-03-01T09:07:49;27.85;49.79
63899;HTU21D;50070;-32.946;-60.652;2023-03-01T09:10:16;27.87;49.98
63899;HTU21D;50070;-32.946;-60.652;2023-03-01T09:12:43;27.65;50.85
63899;HTU21D;50070;-32.946;-60.652;2023-03-01T09:15:10;27.76;49.90
63899;HTU21D;50070;-32.946;-60.652;2023-03-01T09:17:37;27.74;50.60
63899;HTU21D;50070;-32.946;-60.652;2023-03-01T09:20:04;27.59;50.60
63899;HTU21D;50070;-32.946;-60.652;2023-03-01T09:22:33;27.54;51.02
63899;HTU21D;50070;-32.946;-60.652;2023-03-01T09:25:00;27.58;50.72
63899;HTU21D;50070;-32.946;-60.652;2023-03-01T09:27:27;27.45;51.40
63899;HTU21D;50070;-32.946;-60.652;2023-03-01T09:29:54;27.51;51.29
63899;HTU21D;50070;-32.946;-60.652;2023-03-01T09:32:22;27.28;51.85
63899;HTU21D;50070;-32.946;-60.652;2023-03-01T09:34:49;27.29;51.82
63899;HTU21D;50070;-32.946;-60.652;2023-03-01T09:37:34;26.99;52.38
63899;HTU21D;50070;-32.946;-60.652;2023-03-01T09:40:03;27.00;52.93
63899;HTU21D;50070;-32.946;-60.652;2023-03-01T09:42:33;27.26;51.65
63899;HTU21D;50070;-32.946;-60.652;2023-03-01T09:45:14;27.32;50.97
63899;HTU21D;50070;-32.946;-60.652;2023-03-01T09:47:46;27.40;50.76
63899;HTU21D;50070;-32.946;-60.652;2023-03-01T09:50:21;27.34;50.21
63899;HTU21D;50070;-32.946;-60.652;2023-03-01T09:53:08;27.49;49.84
63899;HTU21D;50070;-32.946;-60.652;2023-03-01T09:58:41;27.44;48.88
63899;HTU21D;50070;-32.946;-60.652;2023-03-01T10:01:19;27.74;47.92
63899;HTU21D;50070;-32.946;-60.652;2023-03-01T10:09:42;27.56;47.75
63899;HTU21D;50070;-32.946;-60.652;2023-03-01T10:12:15;27.54;49.09
63899;HTU21D;50070;-32.946;-60.652;2023-03-01T10:20:52;27.32;49.23
63899;HTU21D;50070;-32.946;-60.652;2023-03-01T10:23:19;27.21;50.02
63899;HTU21D;50070;-32.946;-60.652;2023-03-01T10:26:23;27.25;49.63
63899;HTU21D;50070;-32.946;-60.652;2023-03-01T10:29:08;27.22;50.20
63899;HTU21D;50070;-32.946;-60.652;2023-03-01T10:34:19;27.30;49.47
63899;HTU21D;50070;-32.946;-60.652;2023-03-01T10:36:51;27.28;49.10
63899;HTU21D;50070;-32.946;-60.652;2023-03-01T10:39:22;27.40;48.75
63899;HTU21D;50070;-32.946;-60.652;2023-03-01T10:42:01;27.05;49.76
63899;HTU21D;50070;-32.946;-60.652;2023-03-01T10:47:04;27.02;50.11
63899;HTU21D;50070;-32.946;-60.652;2023-03-01T10:49:31;26.82;50.77
63899;HTU21D;50070;-32.946;-60.652;2023-03-01T10:52:16;26.84;50.33
63899;HTU21D;50070;-32.946;-60.652;2023-03-01T10:54:58;26.87;50.04
63899;HTU21D;50070;-32.946;-60.652;2023-03-01T10:57:32;27.05;50.21
63899;HTU21D;50070;-32.946;-60.652;2023-03-01T11:00:25;27.20;49.47
63899;HTU21D;50070;-32.946;-60.652;2023-03-01T11:03:13;27.29;48.98
63899;HTU21D;50070;-32.946;-60.652;2023-03-01T11:14:06;27.87;47.70
63899;HTU21D;50070;-32.946;-60.652;2023-03-01T11:16:38;27.90;47.64
63899;HTU21D;50070;-32.946;-60.652;2023-03-01T11:22:01;28.04;47.00
63899;HTU21D;50070;-32.946;-60.652;2023-03-01T11:24:41;28.13;46.78
63899;HTU21D;50070;-32.946;-60.652;2023-03-01T11:27:21;28.20;46.70
63899;HTU21D;50070;-32.946;-60.652;2023-03-01T11:29:56;28.05;47.05
63899;HTU21D;50070;-32.946;-60.652;2023-03-01T11:32:27;28.04;47.15
63899;HTU21D;50070;-32.946;-60.652;2023-03-01T11:40:46;28.10;47.50
63899;HTU21D;50070;-32.946;-60.652;2023-03-01T11:56:55;28.61;47.04
63899;HTU21D;50070;-32.946;-60.652;2023-03-01T11:59:45;28.70;46.31
63899;HTU21D;50070;-32.946;-60.652;2023-03-01T12:08:13;28.43;47.42
63899;HTU21D;50070;-32.946;-60.652;2023-03-01T12:13:23;28.72;47.47
63899;HTU21D;50070;-32.946;-60.652;2023-03-01T12:16:08;28.47;47.89
63899;HTU21D;50070;-32.946;-60.652;2023-03-01T12:24:44;28.59;47.79
63899;HTU21D;50070;-32.946;-60.652;2023-03-01T12:35:45;28.54;48.83
63899;HTU21D;50070;-32.946;-60.652;2023-03-01T12:47:48;29.13;47.99
63899;HTU21D;50070;-32.946;-60.652;2023-03-01T12:49:49;29.20;47.83
63899;HTU21D;50070;-32.946;-60.652;2023-03-01T12:52:38;29.48;47.71
63899;HTU21D;50070;-32.946;-60.652;2023-03-01T13:00:45;29.29;47.05
63899;HTU21D;50070;-32.946;-60.652;2023-03-01T13:03:32;28.95;48.13
63899;HTU21D;50070;-32.946;-60.652;2023-03-01T13:06:25;28.86;49.02
63899;HTU21D;50070;-32.946;-60.652;2023-03-01T13:09:23;29.62;47.38
63899;HTU21D;50070;-32.946;-60.652;2023-03-01T13:11:52;29.92;46.75
63899;HTU21D;50070;-32.946;-60.652;2023-03-01T13:16:52;30.05;45.94
63899;HTU21D;50070;-32.946;-60.652;2023-03-01T13:19:25;30.27;45.32
63899;HTU21D;50070;-32.946;-60.652;2023-03-01T13:21:55;31.05;43.90
63899;HTU21D;50070;-32.946;-60.652;2023-03-01T13:24:41;31.44;43.00
63899;HTU21D;50070;-32.946;-60.652;2023-03-01T13:29:48;31.01;44.27
63899;HTU21D;50070;-32.946;-60.652;2023-03-01T13:32:27;30.62;44.64
63899;HTU21D;50070;-32.946;-60.652;2023-03-01T13:34:59;30.77;44.68
63899;HTU21D;50070;-32.946;-60.652;2023-03-01T13:37:44;30.85;44.78
63899;HTU21D;50070;-32.946;-60.652;2023-03-01T13:42:46;31.15;43.85
63899;HTU21D;50070;-32.946;-60.652;2023-03-01T13:50:57;31.57;42.88
63899;HTU21D;50070;-32.946;-60.652;2023-03-01T13:53:27;31.35;43.77
63899;HTU21D;50070;-32.946;-60.652;2023-03-01T13:56:00;31.14;44.20
63899;HTU21D;50070;-32.946;-60.652;2023-03-01T13:58:33;31.09;43.86
63899;HTU21D;50070;-32.946;-60.652;2023-03-01T14:01:34;31.41;43.43
63899;HTU21D;50070;-32.946;-60.652;2023-03-01T14:04:25;31.95;42.69
63899;HTU21D;50070;-32.946;-60.652;2023-03-01T14:07:11;31.98;42.74
63899;HTU21D;50070;-32.946;-60.652;2023-03-01T14:09:42;32.05;42.61
63899;HTU21D;50070;-32.946;-60.652;2023-03-01T14:15:39;32.28;41.82
63899;HTU21D;50070;-32.946;-60.652;2023-03-01T14:18:33;32.39;42.28
63899;HTU21D;50070;-32.946;-60.652;2023-03-01T14:21:08;32.64;42.03
63899;HTU21D;50070;-32.946;-60.652;2023-03-01T14:23:35;33.23;40.67
63899;HTU21D;50070;-32.946;-60.652;2023-03-01T14:26:05;33.19;41.36
63899;HTU21D;50070;-32.946;-60.652;2023-03-01T14:28:36;32.84;42.04
63899;HTU21D;50070;-32.946;-60.652;2023-03-01T14:31:38;33.26;40.39
63899;HTU21D;50070;-32.946;-60.652;2023-03-01T14:34:16;33.41;40.61
63899;HTU21D;50070;-32.946;-60.652;2023-03-01T14:36:45;33.76;39.46
63899;HTU21D;50070;-32.946;-60.652;2023-03-01T14:39:20;33.91;40.62
63899;HTU21D;50070;-32.946;-60.652;2023-03-01T14:41:49;33.60;40.59
63899;HTU21D;50070;-32.946;-60.652;2023-03-01T14:44:24;33.68;41.08
63899;HTU21D;50070;-32.946;-60.652;2023-03-01T14:46:57;34.23;39.40
63899;HTU21D;50070;-32.946;-60.652;2023-03-01T14:49:26;34.14;39.36
63899;HTU21D;50070;-32.946;-60.652;2023-03-01T14:52:02;34.40;39.30
63899;HTU21D;50070;-32.946;-60.652;2023-03-01T14:54:49;34.12;39.27
63899;HTU21D;50070;-32.946;-60.652;2023-03-01T14:57:24;34.77;38.54
63899;HTU21D;50070;-32.946;-60.652;2023-03-01T15:00:03;34.21;39.24
63899;HTU21D;50070;-32.946;-60.652;2023-03-01T15:02:33;33.94;41.52
63899;HTU21D;50070;-32.946;-60.652;2023-03-01T15:05:03;34.45;39.42
63899;HTU21D;50070;-32.946;-60.652;2023-03-01T15:07:37;34.33;39.71
63899;HTU21D;50070;-32.946;-60.652;2023-03-01T15:10:14;34.69;39.20
63899;HTU21D;50070;-32.946;-60.652;2023-03-01T15:12:42;34.78;38.17
63899;HTU21D;50070;-32.946;-60.652;2023-03-01T15:15:23;34.44;39.20
63899;HTU21D;50070;-32.946;-60.652;2023-03-01T15:17:59;34.91;38.63
63899;HTU21D;50070;-32.946;-60.652;2023-03-01T15:20:28;34.68;38.85
63899;HTU21D;50070;-32.946;-60.652;2023-03-01T15:22:57;34.63;39.50
63899;HTU21D;50070;-32.946;-60.652;2023-03-01T15:25:29;35.00;38.59
63899;HTU21D;50070;-32.946;-60.652;2023-03-01T15:27:58;35.13;38.28
63899;HTU21D;50070;-32.946;-60.652;2023-03-01T15:30:35;34.97;38.33
63899;HTU21D;50070;-32.946;-60.652;2023-03-01T15:35:59;34.52;38.91
63899;HTU21D;50070;-32.946;-60.652;2023-03-01T15:40:54;35.24;37.24
63899;HTU21D;50070;-32.946;-60.652;2023-03-01T15:46:12;34.75;37.08
63899;HTU21D;50070;-32.946;-60.652;2023-03-01T15:48:48;34.88;37.18
63899;HTU21D;50070;-32.946;-60.652;2023-03-01T15:51:27;34.83;36.53
63899;HTU21D;50070;-32.946;-60.652;2023-03-01T15:53:55;34.88;37.15
63899;HTU21D;50070;-32.946;-60.652;2023-03-01T15:56:23;35.04;37.20
63899;HTU21D;50070;-32.946;-60.652;2023-03-01T15:58:50;34.45;37.23
63899;HTU21D;50070;-32.946;-60.652;2023-03-01T16:01:27;34.49;38.46
63899;HTU21D;50070;-32.946;-60.652;2023-03-01T16:04:06;34.62;36.25
63899;HTU21D;50070;-32.946;-60.652;2023-03-01T16:06:33;34.70;36.20
63899;HTU21D;50070;-32.946;-60.652;2023-03-01T16:09:02;35.22;35.15
63899;HTU21D;50070;-32.946;-60.652;2023-03-01T16:11:29;35.21;35.18
63899;HTU21D;50070;-32.946;-60.652;2023-03-01T16:13:55;35.11;35.75
63899;HTU21D;50070;-32.946;-60.652;2023-03-01T16:16:22;35.26;35.17
63899;HTU21D;50070;-32.946;-60.652;2023-03-01T16:18:49;35.43;34.49
63899;HTU21D;50070;-32.946;-60.652;2023-03-01T16:21:24;35.68;34.14
63899;HTU21D;50070;-32.946;-60.652;2023-03-01T16:23:52;35.53;32.79
63899;HTU21D;50070;-32.946;-60.652;2023-03-01T16:26:18;35.12;33.87
63899;HTU21D;50070;-32.946;-60.652;2023-03-01T16:28:45;35.39;33.46
63899;HTU21D;50070;-32.946;-60.652;2023-03-01T16:31:12;35.58;33.05
63899;HTU21D;50070;-32.946;-60.652;2023-03-01T16:33:40;35.67;33.07
63899;HTU21D;50070;-32.946;-60.652;2023-03-01T16:36:11;35.59;33.28
63899;HTU21D;50070;-32.946;-60.652;2023-03-01T16:38:52;36.12;30.64
63899;HTU21D;50070;-32.946;-60.652;2023-03-01T16:41:21;35.62;28.73
63899;HTU21D;50070;-32.946;-60.652;2023-03-01T16:43:51;36.09;27.76
63899;HTU21D;50070;-32.946;-60.652;2023-03-01T16:46:27;36.06;28.40
63899;HTU21D;50070;-32.946;-60.652;2023-03-01T16:49:03;36.01;28.12
63899;HTU21D;50070;-32.946;-60.652;2023-03-01T16:51:30;35.60;29.97
63899;HTU21D;50070;-32.946;-60.652;2023-03-01T17:45:09;35.60;29.99
63899;HTU21D;50070;-32.946;-60.652;2023-03-01T17:47:37;35.53;29.90
63899;HTU21D;50070;-32.946;-60.652;2023-03-01T17:50:04;35.86;29.49
63899;HTU21D;50070;-32.946;-60.652;2023-03-01T17:52:31;35.51;29.72
63899;HTU21D;50070;-32.946;-60.652;2023-03-01T17:54:58;35.95;29.34
63899;HTU21D;50070;-32.946;-60.652;2023-03-01T17:57:25;36.42;28.48